Time;durP1;ratioP1;P1;durP2;ratioP2;P2;SDS_P1;SDS_P2;PMS_P1;PMS_P2;Temp;Humidity;BMP_temperature;BMP_pressure;BME280_temperature;BME280_humidity;BME280_pressure;Samples;Min_cycle;Max_cycle;Signal;HPM_P1;HPM_P2
2022/05/26 00:03:55;;;;;;;12.73;8.03;;;;;;;10.43;90.43;100450.64;3398466;84;99556;-83
2022/05/26 00:08:58;;;;;;;12.00;7.13;;;;;;;10.41;91.34;100453.55;3380868;85;99093;-83
2022/05/26 00:14:07;;;;;;;13.57;7.40;;;;;;;10.34;91.17;100461.70;3384694;84;99454;-84
2022/05/26 00:19:06;;;;;;;12.37;6.80;;;;;;;10.29;91.32;100450.45;3397739;84;33311;-84
2022/05/26 00:24:07;;;;;;;11.50;6.87;;;;;;;10.25;91.57;100455.11;3386675;84;98980;-84
2022/05/26 00:29:08;;;;;;;15.63;8.90;;;;;;;10.23;91.80;100456.08;3399110;85;99003;-84
2022/05/26 00:34:09;;;;;;;13.00;7.60;;;;;;;10.19;92.55;100464.86;3378102;85;98971;-84
2022/05/26 00:39:24;;;;;;;10.80;6.90;;;;;;;10.12;92.57;100459.28;3374434;84;98961;-84
2022/05/26 00:44:25;;;;;;;11.87;6.37;;;;;;;10.12;93.26;100455.72;3386869;84;98883;-84
2022/05/26 00:49:37;;;;;;;11.70;6.27;;;;;;;10.12;93.06;100452.40;3388473;85;99201;-84
2022/05/26 00:54:39;;;;;;;14.10;7.90;;;;;;;10.15;93.18;100463.23;3377006;85;98802;-84
2022/05/26 00:59:57;;;;;;;11.40;6.97;;;;;;;10.18;93.43;100452.28;3379766;84;99226;-84
2022/05/26 01:05:03;;;;;;;11.73;7.20;;;;;;;10.22;94.09;100453.70;3391924;85;99063;-84
2022/05/26 01:10:09;;;;;;;12.50;7.92;;;;;;;10.24;94.37;100457.66;3404645;84;99406;-84
2022/05/26 01:15:20;;;;;;;14.77;8.83;;;;;;;10.28;95.08;100453.57;3377086;84;98908;-84
2022/05/26 01:20:48;;;;;;;12.73;7.27;;;;;;;10.18;95.41;100437.16;3384423;86;99417;-84
2022/05/26 01:26:17;;;;;;;11.40;7.47;;;;;;;10.33;95.32;100454.63;3353177;84;99172;-85
2022/05/26 01:31:50;;;;;;;11.03;6.47;;;;;;;10.34;95.57;100455.62;3359802;85;99092;-84
2022/05/26 01:37:11;;;;;;;13.77;6.63;;;;;;;10.37;95.29;100443.86;3368174;85;26346;-84
2022/05/26 01:42:40;;;;;;;14.10;8.43;;;;;;;10.40;96.06;100446.45;3363716;85;98988;-84
2022/05/26 01:48:08;;;;;;;14.33;9.23;;;;;;;10.41;96.19;100448.83;3378559;85;98827;-83
2022/05/26 01:53:38;;;;;;;12.73;7.90;;;;;;;10.41;96.86;100442.55;3362786;85;99091;-84
2022/05/26 01:58:44;;;;;;;16.35;9.20;;;;;;;10.38;96.94;100441.34;3365094;84;99130;-84
2022/05/26 02:03:48;;;;;;;12.10;7.10;;;;;;;10.35;96.65;100437.95;3396286;85;99327;-84
2022/05/26 02:08:55;;;;;;;13.73;8.20;;;;;;;10.33;96.80;100435.36;3358931;85;99031;-84
2022/05/26 02:14:04;;;;;;;14.40;7.97;;;;;;;10.29;96.46;100434.52;3396772;85;99553;-84
2022/05/26 02:19:16;;;;;;;13.70;7.97;;;;;;;10.23;96.65;100432.70;3393101;85;33922;-83
2022/05/26 02:24:26;;;;;;;12.27;6.40;;;;;;;10.17;96.56;100432.02;3390282;85;99276;-84
2022/05/26 02:34:49;;;;;;;14.87;7.73;;;;;;;10.06;96.33;100433.27;3364733;85;99217;-85
2022/05/26 02:39:51;;;;;;;10.43;7.20;;;;;;;10.06;96.92;100432.47;3364709;85;99065;-83
2022/05/26 02:44:53;;;;;;;12.00;6.97;;;;;;;10.03;97.03;100429.07;3378058;85;98884;-85
2022/05/26 02:50:31;;;;;;;12.40;7.00;;;;;;;10.05;97.12;100439.94;3389676;84;99305;-84
2022/05/26 02:55:46;;;;;;;11.33;6.57;;;;;;;10.06;97.62;100433.27;3393084;85;98842;-85
2022/05/26 03:01:19;;;;;;;8.87;5.43;;;;;;;10.10;97.97;100431.37;3392079;84;98870;-84
2022/05/26 03:06:28;;;;;;;12.57;6.90;;;;;;;10.14;97.92;100426.68;3404959;85;98576;-85
2022/05/26 03:11:31;;;;;;;12.73;7.55;;;;;;;10.21;98.75;100431.48;3366102;85;98815;-86
2022/05/26 03:16:32;;;;;;;10.43;6.40;;;;;;;10.25;98.74;100430.36;3386328;84;99153;-85
2022/05/26 03:21:33;;;;;;;11.20;6.35;;;;;;;10.32;98.75;100424.16;3378940;85;99083;-85
2022/05/26 03:26:35;;;;;;;12.33;6.83;;;;;;;10.39;99.51;100426.98;3387995;85;99504;-84
2022/05/26 03:31:36;;;;;;;11.60;7.53;;;;;;;10.46;99.44;100421.58;3388039;85;98914;-84
2022/05/26 03:41:59;;;;;;;12.63;8.25;;;;;;;10.61;98.87;100422.73;3386051;85;98916;-85
2022/05/26 03:47:01;;;;;;;12.17;7.90;;;;;;;10.72;99.07;100411.25;3394604;83;99351;-85
2022/05/26 03:52:03;;;;;;;9.55;6.17;;;;;;;10.83;98.80;100414.09;3350432;85;99631;-85
2022/05/26 03:57:06;;;;;;;9.63;6.20;;;;;;;10.96;98.11;100391.41;3412867;84;98806;-85
2022/05/26 04:02:08;;;;;;;9.55;5.45;;;;;;;10.96;98.11;100391.41;3366627;85;99221;-86
2022/05/26 04:07:08;;;;;;;9.63;4.87;;;;;;;11.25;97.39;100413.09;3382691;85;33709;-85
2022/05/26 04:12:11;;;;;;;9.03;4.77;;;;;;;11.42;96.80;100422.89;3392563;84;99434;-85
2022/05/26 04:17:12;;;;;;;8.30;4.97;;;;;;;11.59;96.26;100420.06;3387224;85;99272;-86
2022/05/26 04:22:17;;;;;;;9.40;4.70;;;;;;;11.74;95.77;100424.50;3395080;85;99258;-86
2022/05/26 04:27:22;;;;;;;11.70;4.90;;;;;;;11.90;95.30;100417.53;3385390;84;99152;-85
2022/05/26 04:32:23;;;;;;;11.38;4.72;;;;;;;12.06;94.84;100417.20;3385941;85;99015;-87
2022/05/26 04:37:27;;;;;;;8.28;4.33;;;;;;;12.21;94.09;100414.11;3396467;85;27044;-85
2022/05/26 04:42:29;;;;;;;6.67;4.20;;;;;;;12.38;93.85;100413.38;3378162;84;99041;-86
2022/05/26 04:47:30;;;;;;;8.20;4.57;;;;;;;12.52;93.47;100415.40;3397321;85;99150;-85
2022/05/26 04:52:31;;;;;;;7.10;3.70;;;;;;;12.69;92.80;100413.27;3343221;85;98905;-86
2022/05/26 04:57:32;;;;;;;6.57;3.50;;;;;;;12.85;92.13;100415.08;3368876;85;99218;-84
2022/05/26 05:02:33;;;;;;;7.40;4.47;;;;;;;13.02;91.34;100423.43;3379839;84;98908;-88
2022/05/26 05:07:34;;;;;;;7.47;3.83;;;;;;;13.20;90.29;100428.37;3378724;85;33237;-85
2022/05/26 05:12:36;;;;;;;7.57;3.83;;;;;;;13.37;89.46;100431.75;3385606;85;99172;-85
2022/05/26 05:17:37;;;;;;;9.20;3.83;;;;;;;13.53;88.78;100432.11;3395926;85;98614;-86
2022/05/26 05:22:49;;;;;;;7.50;3.70;;;;;;;13.70;88.51;100437.44;3382713;83;99264;-85
2022/05/26 05:28:00;;;;;;;9.88;3.55;;;;;;;13.84;87.45;100438.81;3376441;85;99359;-85
2022/05/26 05:33:10;;;;;;;7.70;3.80;;;;;;;14.01;86.79;100433.21;3381148;84;99054;-85
2022/05/26 05:38:11;;;;;;;7.73;3.73;;;;;;;14.16;85.71;100438.91;3355624;85;98990;-87
2022/05/26 05:43:13;;;;;;;12.98;4.15;;;;;;;14.34;85.38;100430.58;3377698;84;98811;-88
2022/05/26 05:48:14;;;;;;;6.87;3.20;;;;;;;14.55;84.86;100431.88;3392362;84;98760;-88
2022/05/26 05:53:15;;;;;;;8.60;3.67;;;;;;;14.72;83.60;100438.68;3377105;84;99092;-86
2022/05/26 05:58:16;;;;;;;8.30;3.37;;;;;;;14.94;83.27;100440.13;3388307;84;99347;-87
2022/05/26 06:03:17;;;;;;;6.47;3.70;;;;;;;15.14;81.67;100441.19;3403667;84;99133;-86
2022/05/26 06:08:18;;;;;;;6.95;3.08;;;;;;;15.31;81.25;100434.72;3383449;85;98904;-89
2022/05/26 06:13:19;;;;;;;6.77;3.07;;;;;;;15.47;79.45;100443.33;3402492;84;98483;-87
2022/05/26 06:18:20;;;;;;;7.40;3.73;;;;;;;15.65;80.34;100445.95;3402532;84;98745;-89
2022/05/26 06:23:21;;;;;;;7.37;3.20;;;;;;;15.84;79.11;100448.94;3394813;84;98804;-85
2022/05/26 06:39:00;;;;;;;4.08;2.52;;;;;;;16.32;77.10;100450.99;3414860;83;98788;-89
2022/05/26 06:44:03;;;;;;;6.30;2.90;;;;;;;16.50;75.74;100456.34;3383971;84;98900;-85
2022/05/26 06:49:04;;;;;;;6.13;2.43;;;;;;;16.58;75.22;100446.73;3419476;83;25998;-84
2022/05/26 06:54:06;;;;;;;8.35;3.20;;;;;;;16.74;74.53;100445.52;3396899;84;99190;-83
2022/05/26 06:59:07;;;;;;;8.48;3.10;;;;;;;16.88;74.01;100452.26;3398689;85;98812;-84
2022/05/26 07:04:08;;;;;;;9.50;3.37;;;;;;;17.05;73.45;100442.90;3382374;83;98573;-85
2022/05/26 07:09:09;;;;;;;6.83;3.07;;;;;;;17.26;72.96;100451.69;3391382;85;99173;-83
2022/05/26 07:14:11;;;;;;;7.23;2.73;;;;;;;17.36;71.93;100445.77;3403599;84;99234;-83
2022/05/26 07:19:14;;;;;;;7.37;3.00;;;;;;;17.47;71.63;100447.22;3398983;84;25871;-84
2022/05/26 07:24:21;;;;;;;7.72;2.70;;;;;;;17.62;70.99;100449.14;3410129;83;99098;-84
2022/05/26 07:29:22;;;;;;;5.62;2.75;;;;;;;17.74;70.90;100434.61;3270029;87;98919;-85
2022/05/26 07:34:23;;;;;;;6.58;2.75;;;;;;;17.92;70.24;100447.00;3311420;85;98729;-83
2022/05/26 07:44:48;;;;;;;6.45;2.60;;;;;;;18.38;69.30;100442.77;3326439;85;99133;-84
2022/05/26 07:49:51;;;;;;;9.37;2.70;;;;;;;18.64;67.72;100446.60;3369217;85;26981;-85
2022/05/26 07:54:56;;;;;;;6.35;2.90;;;;;;;18.89;66.75;100453.20;3330086;87;98972;-85
2022/05/26 07:59:59;;;;;;;7.90;2.47;;;;;;;19.17;66.46;100448.97;3336327;85;98879;-81
2022/05/26 08:05:05;;;;;;;8.43;3.13;;;;;;;19.40;65.15;100446.84;3319477;86;99018;-82
2022/05/26 08:10:08;;;;;;;5.08;2.40;;;;;;;19.78;64.67;100442.27;3332424;86;98941;-81
2022/05/26 08:15:10;;;;;;;6.00;2.67;;;;;;;20.06;63.13;100442.14;3347048;86;98816;-87
2022/05/26 08:20:12;;;;;;;5.75;2.65;;;;;;;20.22;62.12;100442.12;3350482;84;99400;-83
2022/05/26 08:25:13;;;;;;;6.57;2.70;;;;;;;20.62;62.24;100437.76;3379108;85;98761;-85
2022/05/26 08:30:16;;;;;;;8.00;3.00;;;;;;;21.23;61.13;100443.87;3382495;85;98926;-85
2022/05/26 08:35:18;;;;;;;4.97;2.75;;;;;;;21.80;59.71;100448.57;3388584;83;98870;-85
2022/05/26 08:40:48;;;;;;;4.60;2.30;;;;;;;22.16;59.73;100443.91;3428681;84;98978;-86
2022/05/26 08:45:53;;;;;;;4.15;2.10;;;;;;;22.50;58.46;100448.88;3402659;84;99167;-82
2022/05/26 08:50:56;;;;;;;5.17;2.50;;;;;;;22.83;57.43;100463.28;3399007;83;99055;-84
2022/05/26 08:56:01;;;;;;;5.22;2.50;;;;;;;22.94;56.78;100470.03;3404603;84;26063;-85
2022/05/26 09:01:06;;;;;;;3.43;1.93;;;;;;;22.83;55.17;100470.30;3352704;83;106256;-81
2022/05/26 09:06:18;;;;;;;;;;;;;;;22.64;55.59;100459.58;3404146;84;98203;-82
2022/05/26 09:16:41;;;;;;;4.12;1.90;;;;;;;22.82;53.42;100470.91;3414708;84;99302;-82
2022/05/26 09:21:45;;;;;;;5.12;1.80;;;;;;;23.12;52.55;100458.91;3390374;84;99144;-84
2022/05/26 09:26:50;;;;;;;9.53;1.65;;;;;;;23.69;52.97;100465.20;3400409;84;99303;-83
2022/05/26 09:31:51;;;;;;;5.35;1.80;;;;;;;23.93;50.24;100460.58;3398628;84;98830;-83
2022/05/26 09:37:00;;;;;;;6.08;1.57;;;;;;;24.40;51.27;100455.90;3400181;84;98569;-84
2022/05/26 09:42:06;;;;;;;5.50;1.37;;;;;;;24.74;49.42;100454.94;3398901;84;99134;-83
2022/05/26 09:47:22;;;;;;;3.45;1.30;;;;;;;24.35;48.66;100456.55;3411272;84;98885;-82
2022/05/26 09:52:26;;;;;;;;;;;;;;;24.03;48.43;100450.91;3415359;84;99170;-83
2022/05/26 09:57:28;;;;;;;4.00;1.52;;;;;;;23.78;47.33;100453.20;3408401;84;85066;-84
2022/05/26 10:02:40;;;;;;;5.05;1.42;;;;;;;23.39;48.71;100461.86;3401412;83;99126;-82
2022/05/26 10:08:04;;;;;;;12.78;2.12;;;;;;;22.91;49.02;100456.94;3411764;84;26492;-81
2022/05/26 10:13:22;;;;;;;2.70;1.00;;;;;;;22.68;49.16;100462.25;3410890;84;99325;-84
2022/05/26 10:18:55;;;;;;;3.05;1.37;;;;;;;22.39;50.11;100461.08;3386341;85;98752;-82
2022/05/26 10:24:20;;;;;;;3.20;1.10;;;;;;;22.23;50.27;100469.67;3387289;84;98766;-79
2022/05/26 10:29:56;;;;;;;7.70;1.52;;;;;;;21.93;51.76;100475.96;3422077;84;99308;-82
2022/05/26 10:35:19;;;;;;;3.62;1.70;;;;;;;21.51;52.30;100515.77;3385802;84;99239;-79
2022/05/26 10:40:37;;;;;;;5.33;1.70;;;;;;;20.65;57.08;100521.55;3391018;85;99297;-81
2022/05/26 10:45:47;;;;;;;4.20;1.52;;;;;;;20.07;59.20;100526.97;3382817;84;99733;-82
2022/05/26 10:51:17;;;;;;;5.03;2.10;;;;;;;19.71;62.17;100533.22;3399023;84;98799;-81
2022/05/26 10:56:48;;;;;;;8.78;2.65;;;;;;;19.50;62.93;100551.11;3408449;84;97981;-81
2022/05/26 11:02:17;;;;;;;4.25;2.60;;;;;;;19.03;64.73;100539.34;3406665;84;98826;-82
2022/05/26 11:07:36;;;;;;;5.03;3.07;;;;;;;18.69;66.81;100527.72;3376796;83;98542;-81
2022/05/26 11:13:04;;;;;;;4.62;1.70;;;;;;;18.55;68.28;100533.59;3388561;84;99193;-84
2022/05/26 11:18:16;;;;;;;3.33;1.60;;;;;;;18.68;68.22;100542.08;3377750;84;98659;-81
2022/05/26 11:23:17;;;;;;;2.95;1.30;;;;;;;18.69;67.49;100538.87;3413537;84;98617;-81
2022/05/26 11:28:41;;;;;;;4.65;2.02;;;;;;;18.99;67.23;100529.48;3389686;84;99186;-81
2022/05/26 11:39:39;;;;;;;2.93;1.53;;;;;;;19.07;64.69;100542.85;3411393;84;99154;-80
2022/05/26 11:44:57;;;;;;;4.00;1.47;;;;;;;19.20;64.79;100538.80;3416793;84;98752;-79
2022/05/26 11:50:03;;;;;;;3.40;1.55;;;;;;;19.44;64.53;100529.89;3397802;84;26245;-82
2022/05/26 11:55:18;;;;;;;5.10;2.00;;;;;;;19.55;64.82;100529.63;3417697;84;98788;-82
2022/05/26 12:00:40;;;;;;;6.45;1.95;;;;;;;19.90;65.08;100533.73;3346534;85;98912;-79
2022/05/26 12:05:45;;;;;;;3.20;1.70;;;;;;;20.46;62.32;100527.30;3423953;84;99163;-80
2022/05/26 12:10:54;;;;;;;3.27;1.70;;;;;;;20.69;62.30;100522.84;3421726;84;99267;-82
2022/05/26 12:16:18;;;;;;;6.42;1.37;;;;;;;21.03;61.17;100506.30;3393041;85;99173;-80
2022/05/26 12:21:43;;;;;;;3.35;1.20;;;;;;;21.30;60.48;100504.63;3364510;84;98909;-82
2022/05/26 12:26:55;;;;;;;2.83;1.22;;;;;;;21.69;57.16;100497.18;3408776;84;99234;-80
2022/05/26 12:32:26;;;;;;;3.25;1.30;;;;;;;21.97;54.79;100490.61;3402745;85;98769;-80
2022/05/26 12:38:13;;;;;;;3.75;1.32;;;;;;;22.25;55.08;100482.64;3416126;84;98889;-80
2022/05/26 12:43:29;;;;;;;4.03;1.25;;;;;;;22.78;55.02;100480.08;3388265;85;98856;-78
2022/05/26 12:48:41;;;;;;;6.22;1.35;;;;;;;22.77;50.83;100473.54;3404258;84;98595;-78
2022/05/26 12:53:55;;;;;;;3.72;1.35;;;;;;;22.45;50.52;100476.75;3399919;85;99196;-80
2022/05/26 12:58:59;;;;;;;4.00;1.20;;;;;;;22.31;51.45;100468.80;3398136;84;99196;-79
2022/05/26 13:04:14;;;;;;;3.58;1.37;;;;;;;22.29;49.65;100482.51;3402339;85;98895;-80
2022/05/26 13:09:30;;;;;;;4.58;1.25;;;;;;;22.29;48.38;100467.09;3386806;85;98963;-80
2022/05/26 13:14:56;;;;;;;3.30;1.07;;;;;;;22.34;48.22;100462.30;3380143;85;99029;-77
2022/05/26 13:20:04;;;;;;;2.90;1.00;;;;;;;22.45;48.32;100468.33;3401655;83;26890;-80
2022/05/26 13:25:14;;;;;;;3.30;1.30;;;;;;;22.41;47.19;100464.84;3414529;84;98620;-79
2022/05/26 13:35:43;;;;;;;5.92;1.30;;;;;;;22.73;46.17;100454.01;3398496;84;98888;-78
2022/05/26 13:40:47;;;;;;;;;;;;;;;22.99;47.18;100451.83;3403713;84;98504;-79
2022/05/26 13:45:48;;;;;;;3.65;1.12;;;;;;;23.12;45.82;100444.08;3409689;84;85514;-78
2022/05/26 13:50:53;;;;;;;6.25;1.20;;;;;;;22.87;44.67;100453.47;3380115;84;99228;-80
2022/05/26 13:55:57;;;;;;;3.55;1.45;;;;;;;22.65;45.19;100442.91;3399297;84;26449;-81
2022/05/26 14:01:02;;;;;;;3.67;1.30;;;;;;;22.66;45.64;100442.30;3388853;84;98684;-82
2022/05/26 14:06:12;;;;;;;3.90;1.20;;;;;;;22.82;46.16;100441.44;3385816;84;98752;-81
2022/05/26 14:11:39;;;;;;;5.53;2.08;;;;;;;22.89;45.70;100441.16;3389616;85;99359;-81
2022/05/26 14:16:40;;;;;;;5.53;1.75;;;;;;;22.74;44.72;100433.76;3393371;85;99349;-80
2022/05/26 14:21:45;;;;;;;3.65;1.40;;;;;;;22.56;45.41;100442.84;3380819;84;98835;-80
2022/05/26 14:27:21;;;;;;;4.53;1.50;;;;;;;22.52;44.46;100443.61;3387816;84;99238;-81
2022/05/26 14:32:26;;;;;;;;;;;;;;;22.28;44.44;100452.91;3337118;85;98738;-78
2022/05/26 14:37:29;;;;;;;7.00;1.40;;;;;;;21.85;42.95;100461.25;3397895;84;85185;-79
2022/05/26 14:42:34;;;;;;;5.35;1.30;;;;;;;21.50;44.02;100467.98;3413522;84;99155;-80
2022/05/26 14:47:37;;;;;;;6.60;2.20;;;;;;;21.17;44.33;100466.66;3403320;83;98029;-80
2022/05/26 14:52:42;;;;;;;7.40;2.37;;;;;;;21.02;45.24;100452.94;3407776;83;98935;-81
2022/05/26 14:57:44;;;;;;;;;;;;;;;21.06;45.80;100453.63;3428081;83;98911;-80
2022/05/26 15:02:45;;;;;;;6.90;2.15;;;;;;;21.17;47.71;100460.46;3415297;84;85217;-81
2022/05/26 15:07:46;;;;;;;4.57;1.60;;;;;;;21.19;47.41;100456.59;3421680;84;26297;-79
2022/05/26 15:12:47;;;;;;;3.60;1.40;;;;;;;21.21;48.19;100460.34;3408644;85;99018;-79
2022/05/26 15:17:48;;;;;;;5.03;1.67;;;;;;;21.10;47.11;100450.10;3389597;85;98629;-80
2022/05/26 15:22:49;;;;;;;6.27;1.50;;;;;;;21.01;47.78;100456.37;3408349;85;98767;-80
2022/05/26 15:27:50;;;;;;;6.93;2.10;;;;;;;20.95;46.90;100456.77;3429409;84;99309;-79
2022/05/26 15:32:51;;;;;;;3.50;1.50;;;;;;;20.78;47.30;100455.26;3388498;83;98855;-79
2022/05/26 15:37:54;;;;;;;4.37;1.70;;;;;;;20.59;47.29;100465.23;3347894;84;33495;-80
2022/05/26 15:42:55;;;;;;;5.77;1.80;;;;;;;20.41;48.48;100459.34;3382595;84;98974;-79
2022/05/26 15:47:58;;;;;;;9.70;2.37;;;;;;;20.40;49.55;100457.78;3386038;84;98651;-79
2022/05/26 15:53:02;;;;;;;3.08;1.50;;;;;;;20.33;49.64;100473.36;3399688;84;99626;-75
2022/05/26 15:58:03;;;;;;;5.30;2.00;;;;;;;20.22;50.66;100463.09;3395994;85;98942;-76
2022/05/26 16:03:05;;;;;;;7.03;2.53;;;;;;;20.22;51.10;100459.66;3361340;85;99188;-78
2022/05/26 16:08:07;;;;;;;5.03;1.87;;;;;;;20.29;51.38;100455.90;3371460;84;26570;-78
2022/05/26 16:13:09;;;;;;;7.67;1.92;;;;;;;20.23;51.95;100459.06;3386062;84;98917;-79
2022/05/26 16:18:12;;;;;;;8.88;2.08;;;;;;;20.14;51.76;100465.29;3384352;84;98780;-75
2022/05/26 16:23:20;;;;;;;5.40;1.72;;;;;;;20.12;51.93;100468.35;3386338;84;98916;-81
2022/05/26 16:28:22;;;;;;;6.60;2.50;;;;;;;20.19;51.95;100473.14;3377543;83;99342;-80
2022/05/26 16:33:22;;;;;;;6.53;1.70;;;;;;;20.18;52.55;100468.78;3403415;83;98851;-80
2022/05/26 16:38:26;;;;;;;5.37;1.87;;;;;;;20.16;52.79;100471.21;3419158;83;26723;-81
2022/05/26 16:43:27;;;;;;;5.90;2.02;;;;;;;20.15;52.88;100468.85;3376635;84;99086;-81
2022/05/26 16:48:31;;;;;;;4.27;2.20;;;;;;;20.04;52.61;100460.73;3388814;84;99240;-80
2022/05/26 16:53:32;;;;;;;6.37;2.55;;;;;;;19.95;53.14;100468.19;3387909;84;99574;-79
2022/05/26 16:58:34;;;;;;;4.25;2.17;;;;;;;19.81;53.09;100473.53;3368221;84;98851;-79
2022/05/26 17:03:36;;;;;;;4.30;2.10;;;;;;;19.67;53.11;100475.91;3394826;84;99358;-80
2022/05/26 17:08:37;;;;;;;3.65;1.80;;;;;;;19.56;53.25;100475.38;3346988;84;99518;-80
2022/05/26 17:24:20;;;;;;;6.37;2.10;;;;;;;19.40;54.04;100481.72;3384728;84;99146;-81
2022/05/26 17:29:21;;;;;;;5.20;1.77;;;;;;;19.27;53.74;100473.88;3394238;84;99439;-79
2022/05/26 17:34:23;;;;;;;6.67;2.60;;;;;;;19.19;53.55;100473.05;3396362;84;99205;-79
2022/05/26 17:39:27;;;;;;;9.30;2.40;;;;;;;19.17;53.33;100472.68;3386546;84;98939;-80
2022/05/26 17:44:32;;;;;;;6.53;1.90;;;;;;;19.10;53.53;100472.25;3412375;84;98820;-79
2022/05/26 17:49:33;;;;;;;7.03;2.58;;;;;;;19.02;53.34;100468.66;3368508;84;99172;-81
2022/05/26 17:54:40;;;;;;;5.17;2.20;;;;;;;18.99;53.04;100470.91;3394189;85;99079;-81
2022/05/26 18:05:01;;;;;;;7.42;2.50;;;;;;;18.87;52.79;100473.78;3368094;84;99293;-81
2022/05/26 18:10:03;;;;;;;7.00;2.27;;;;;;;18.80;52.76;100470.36;3384383;84;99232;-82
2022/05/26 18:15:06;;;;;;;8.17;2.20;;;;;;;18.75;52.74;100473.02;3353324;84;99618;-80
2022/05/26 18:20:10;;;;;;;4.65;1.80;;;;;;;18.69;52.67;100469.17;3381506;84;26552;-82
2022/05/26 18:25:13;;;;;;;7.90;1.65;;;;;;;18.60;52.96;100464.00;3346623;85;99098;-79
2022/05/26 18:30:16;;;;;;;8.43;2.60;;;;;;;18.50;52.20;100471.97;3377529;84;99274;-80
2022/05/26 18:35:22;;;;;;;6.70;2.30;;;;;;;18.43;51.82;100468.72;3386496;84;99406;-79
2022/05/26 18:40:28;;;;;;;5.95;1.75;;;;;;;18.36;51.70;100471.65;3381078;85;99256;-80
2022/05/26 18:45:29;;;;;;;;;;;;;;;18.30;51.55;100471.94;3388717;85;98973;-78
2022/05/26 18:50:30;;;;;;;8.60;1.90;;;;;;;18.23;51.83;100469.89;3375841;84;26527;-80
2022/05/26 18:55:36;;;;;;;7.03;1.70;;;;;;;18.16;52.31;100477.00;3382545;84;98793;-80
2022/05/26 19:00:34;;;;;;;8.20;1.80;;;;;;;18.09;51.91;100479.30;3389508;85;99161;-80
2022/05/26 19:05:36;;;;;;;3.70;1.33;;;;;;;18.02;51.12;100480.04;3377735;84;99533;-81
2022/05/26 19:10:47;;;;;;;7.33;1.25;;;;;;;17.99;51.12;100489.27;3368147;83;98873;-79
2022/05/26 19:15:49;;;;;;;6.23;1.20;;;;;;;17.94;51.66;100491.14;3410029;84;98812;-79
2022/05/26 19:20:54;;;;;;;3.92;1.12;;;;;;;17.87;51.58;100496.84;3383145;85;99234;-79
2022/05/26 19:26:02;;;;;;;5.20;1.40;;;;;;;17.84;51.44;100497.08;3367635;85;26554;-79
2022/05/26 19:31:03;;;;;;;5.77;1.37;;;;;;;17.80;51.32;100505.30;3398048;84;98693;-80
2022/05/26 19:36:04;;;;;;;6.43;1.33;;;;;;;17.77;51.67;100513.12;3381860;84;99076;-80
2022/05/26 19:41:06;;;;;;;5.72;1.95;;;;;;;17.72;52.04;100526.13;3372630;85;99250;-80
2022/05/26 19:46:07;;;;;;;5.10;1.40;;;;;;;17.67;51.84;100527.41;3408727;83;99327;-79
2022/05/26 19:51:08;;;;;;;5.15;1.22;;;;;;;17.61;51.92;100524.89;3374267;84;98917;-80
2022/05/26 19:56:10;;;;;;;3.50;1.10;;;;;;;17.56;52.17;100520.42;3352954;84;26628;-81
2022/05/26 20:01:11;;;;;;;5.23;1.20;;;;;;;17.49;52.26;100523.32;3395411;84;99188;-80
2022/05/26 20:06:13;;;;;;;4.13;1.20;;;;;;;17.47;52.20;100527.11;3395552;84;99162;-79
2022/05/26 20:11:15;;;;;;;8.23;2.00;;;;;;;17.44;52.44;100530.12;3393895;84;99425;-80
2022/05/26 20:16:19;;;;;;;5.35;1.50;;;;;;;17.39;52.71;100524.27;3380449;83;99311;-79
2022/05/26 20:21:21;;;;;;;10.63;1.60;;;;;;;17.35;52.48;100532.64;3389884;84;98932;-79
2022/05/26 20:26:22;;;;;;;6.70;1.77;;;;;;;17.31;52.79;100523.55;3407320;85;25971;-78
2022/05/26 20:31:23;;;;;;;6.33;1.23;;;;;;;17.25;53.08;100520.25;3394316;85;99037;-80
2022/05/26 20:36:24;;;;;;;2.87;1.30;;;;;;;17.19;53.36;100511.61;3379462;84;99180;-79
2022/05/26 20:41:26;;;;;;;5.75;1.32;;;;;;;17.15;53.53;100522.58;3373388;84;98876;-80
2022/05/26 20:46:27;;;;;;;8.90;1.97;;;;;;;17.11;53.47;100519.09;3392064;84;98817;-80
2022/05/26 20:51:28;;;;;;;5.70;1.30;;;;;;;17.06;53.75;100513.98;3387981;84;98818;-80
2022/05/26 20:56:30;;;;;;;10.83;1.50;;;;;;;17.03;53.63;100512.83;3404951;84;33656;-80
2022/05/26 21:01:32;;;;;;;2.47;0.93;;;;;;;17.00;53.84;100509.48;3383308;83;99017;-83
2022/05/26 21:06:33;;;;;;;5.63;1.80;;;;;;;16.97;54.39;100508.14;3398741;84;99183;-83
2022/05/26 21:11:34;;;;;;;8.27;1.40;;;;;;;16.92;54.54;100498.88;3385671;84;99350;-82
2022/05/26 21:16:35;;;;;;;5.47;1.50;;;;;;;16.89;54.82;100503.90;3391593;84;99215;-82
2022/05/26 21:21:36;;;;;;;2.73;1.17;;;;;;;16.83;54.94;100505.54;3374574;84;99530;-83
2022/05/26 21:26:37;;;;;;;6.47;1.40;;;;;;;16.78;55.23;100505.41;3393952;84;98906;-83
2022/05/26 21:31:38;;;;;;;4.25;1.15;;;;;;;16.71;55.63;100496.37;3385686;83;98940;-82
2022/05/26 21:36:39;;;;;;;5.60;1.50;;;;;;;16.69;55.69;100494.63;3404334;84;98618;-82
2022/05/26 21:41:40;;;;;;;6.37;1.45;;;;;;;16.66;56.44;100487.91;3386828;84;99463;-82
2022/05/26 21:46:41;;;;;;;6.83;1.47;;;;;;;16.59;56.73;100481.05;3370260;84;99008;-82
2022/05/26 21:51:49;;;;;;;6.37;1.87;;;;;;;16.55;56.67;100476.14;3369941;85;99190;-82
2022/05/26 21:56:50;;;;;;;5.28;1.27;;;;;;;16.53;56.68;100468.03;3419059;84;98791;-83
2022/05/26 22:01:51;;;;;;;5.77;1.57;;;;;;;16.51;56.98;100472.60;3409746;84;99020;-83
2022/05/26 22:12:13;;;;;;;9.67;1.77;;;;;;;16.48;57.20;100467.89;3368040;84;99065;-83
2022/05/26 22:17:14;;;;;;;5.73;1.70;;;;;;;16.48;57.68;100458.17;3409384;84;98817;-82
2022/05/26 22:22:26;;;;;;;5.80;1.85;;;;;;;16.46;57.60;100452.84;3367252;85;99014;-83
2022/05/26 22:27:28;;;;;;;3.83;1.32;;;;;;;16.45;57.83;100451.27;3350967;85;98861;-83
2022/05/26 22:32:33;;;;;;;5.92;1.40;;;;;;;16.41;58.23;100449.13;3340243;85;98641;-83
2022/05/26 22:37:35;;;;;;;4.87;1.50;;;;;;;16.38;58.54;100445.16;3398408;84;98682;-82
2022/05/26 22:42:48;;;;;;;12.37;2.00;;;;;;;16.35;58.82;100436.26;3369011;84;98990;-82
2022/05/26 22:47:49;;;;;;;5.35;1.40;;;;;;;16.33;58.96;100436.48;3384110;85;99144;-84
2022/05/26 22:52:51;;;;;;;3.40;1.30;;;;;;;16.30;59.17;100418.66;3403873;84;98920;-84
2022/05/26 22:57:54;;;;;;;5.13;2.00;;;;;;;16.29;59.18;100417.71;3377197;85;98970;-84
2022/05/26 23:02:55;;;;;;;3.57;1.50;;;;;;;16.26;59.35;100413.77;3339333;84;98905;-84
2022/05/26 23:07:56;;;;;;;6.03;1.80;;;;;;;16.26;59.53;100405.44;3401127;83;26951;-83
2022/05/26 23:12:58;;;;;;;5.97;1.40;;;;;;;16.27;59.53;100400.66;3381739;85;98941;-83
2022/05/26 23:17:59;;;;;;;3.97;1.67;;;;;;;16.26;59.53;100397.70;3400955;84;98962;-83
2022/05/26 23:23:01;;;;;;;5.17;1.60;;;;;;;16.25;59.76;100394.74;3396716;84;99293;-83
2022/05/26 23:28:04;;;;;;;8.73;1.90;;;;;;;16.24;59.96;100384.84;3404935;86;99296;-84
2022/05/26 23:33:06;;;;;;;7.10;2.02;;;;;;;16.20;60.23;100373.78;3372206;84;99000;-82
2022/05/26 23:38:07;;;;;;;6.00;2.13;;;;;;;16.17;60.55;100377.38;3386092;85;25948;-84
2022/05/26 23:43:22;;;;;;;8.07;2.40;;;;;;;16.15;60.75;100372.05;3395910;85;98871;-82
2022/05/26 23:48:23;;;;;;;9.60;2.60;;;;;;;16.13;61.36;100368.30;3399887;85;98815;-83
2022/05/26 23:53:27;;;;;;;10.23;2.57;;;;;;;16.13;61.74;100360.59;3370488;85;98926;-83
2022/05/26 23:58:28;;;;;;;8.27;3.00;;;;;;;16.11;62.02;100352.66;3395301;85;99409;-83
